sensor_id;sensor_type;location;lat;lon;timestamp;pressure;altitude;pressure_sealevel;temperature;humidity
59194;BME280;44967;48.598;15.650;2022-08-21T00:01:57;97885.25;;;21.96;56.98
59194;BME280;44967;48.598;15.650;2022-08-21T00:04:23;97893.59;;;22.09;57.55
59194;BME280;44967;48.598;15.650;2022-08-21T00:06:50;97905.72;;;22.28;57.42
59194;BME280;44967;48.598;15.650;2022-08-21T00:09:16;97891.47;;;22.00;57.25
59194;BME280;44967;48.598;15.650;2022-08-21T00:11:43;97904.59;;;22.26;57.63
59194;BME280;44967;48.598;15.650;2022-08-21T00:14:09;97889.47;;;22.14;57.16
59194;BME280;44967;48.598;15.650;2022-08-21T00:16:35;97894.81;;;22.21;57.77
59194;BME280;44967;48.598;15.650;2022-08-21T00:19:02;97905.13;;;22.33;57.12
59194;BME280;44967;48.598;15.650;2022-08-21T00:21:28;97875.91;;;21.90;57.75
59194;BME280;44967;48.598;15.650;2022-08-21T00:23:54;97871.38;;;21.96;58.65
59194;BME280;44967;48.598;15.650;2022-08-21T00:26:20;97884.38;;;21.86;58.28
59194;BME280;44967;48.598;15.650;2022-08-21T00:28:46;97880.69;;;21.89;57.75
59194;BME280;44967;48.598;15.650;2022-08-21T00:31:15;97885.34;;;21.80;58.24
59194;BME280;44967;48.598;15.650;2022-08-21T00:33:41;97869.78;;;21.82;57.79
59194;BME280;44967;48.598;15.650;2022-08-21T00:36:07;97895.19;;;21.68;58.99
59194;BME280;44967;48.598;15.650;2022-08-21T00:38:33;97876.78;;;21.87;58.55
59194;BME280;44967;48.598;15.650;2022-08-21T00:41:01;97885.22;;;21.70;58.75
59194;BME280;44967;48.598;15.650;2022-08-21T00:43:30;97875.13;;;21.76;58.77
59194;BME280;44967;48.598;15.650;2022-08-21T00:45:58;97878.00;;;21.73;58.49
59194;BME280;44967;48.598;15.650;2022-08-21T00:48:24;97883.25;;;21.71;58.33
59194;BME280;44967;48.598;15.650;2022-08-21T00:50:57;97874.41;;;21.59;58.71
59194;BME280;44967;48.598;15.650;2022-08-21T00:53:24;97878.81;;;21.73;58.26
59194;BME280;44967;48.598;15.650;2022-08-21T00:55:51;97866.34;;;21.91;57.39
59194;BME280;44967;48.598;15.650;2022-08-21T00:58:18;97879.13;;;21.75;58.36
59194;BME280;44967;48.598;15.650;2022-08-21T01:00:46;97872.31;;;21.63;59.18
59194;BME280;44967;48.598;15.650;2022-08-21T01:03:17;97872.72;;;21.49;59.39
59194;BME280;44967;48.598;15.650;2022-08-21T01:05:43;97875.19;;;21.47;58.69
59194;BME280;44967;48.598;15.650;2022-08-21T01:08:10;97871.91;;;21.35;60.11
59194;BME280;44967;48.598;15.650;2022-08-21T01:10:37;97894.94;;;21.36;59.90
59194;BME280;44967;48.598;15.650;2022-08-21T01:13:08;97893.06;;;21.46;59.86
59194;BME280;44967;48.598;15.650;2022-08-21T01:15:39;97882.94;;;21.39;60.02
59194;BME280;44967;48.598;15.650;2022-08-21T01:18:07;97875.41;;;21.53;59.55
59194;BME280;44967;48.598;15.650;2022-08-21T01:20:35;97867.97;;;21.62;59.37
59194;BME280;44967;48.598;15.650;2022-08-21T01:23:03;97878.84;;;21.57;59.82
59194;BME280;44967;48.598;15.650;2022-08-21T01:25:29;97871.81;;;21.69;59.59
59194;BME280;44967;48.598;15.650;2022-08-21T01:27:55;97875.47;;;21.36;59.34
59194;BME280;44967;48.598;15.650;2022-08-21T01:30:25;97887.44;;;21.62;60.33
59194;BME280;44967;48.598;15.650;2022-08-21T01:32:51;97870.06;;;21.45;59.84
59194;BME280;44967;48.598;15.650;2022-08-21T01:35:18;97870.94;;;21.42;60.51
59194;BME280;44967;48.598;15.650;2022-08-21T01:37:45;97854.50;;;21.35;60.20
59194;BME280;44967;48.598;15.650;2022-08-21T01:40:12;97867.56;;;21.21;61.41
59194;BME280;44967;48.598;15.650;2022-08-21T01:42:38;97864.00;;;21.21;61.71
59194;BME280;44967;48.598;15.650;2022-08-21T01:45:05;97863.84;;;21.54;60.67
59194;BME280;44967;48.598;15.650;2022-08-21T01:47:32;97869.72;;;21.43;60.59
59194;BME280;44967;48.598;15.650;2022-08-21T01:49:58;97865.63;;;21.48;61.05
59194;BME280;44967;48.598;15.650;2022-08-21T01:52:24;97863.00;;;21.15;62.17
59194;BME280;44967;48.598;15.650;2022-08-21T01:54:50;97843.50;;;21.02;61.75
59194;BME280;44967;48.598;15.650;2022-08-21T01:57:15;97854.59;;;21.31;61.32
59194;BME280;44967;48.598;15.650;2022-08-21T01:59:41;97839.03;;;21.34;60.92
59194;BME280;44967;48.598;15.650;2022-08-21T02:02:07;97850.69;;;21.29;61.51
59194;BME280;44967;48.598;15.650;2022-08-21T02:04:33;97834.47;;;21.27;60.92
59194;BME280;44967;48.598;15.650;2022-08-21T02:07:00;97838.66;;;21.19;61.17
59194;BME280;44967;48.598;15.650;2022-08-21T02:09:26;97832.56;;;21.11;61.23
59194;BME280;44967;48.598;15.650;2022-08-21T02:11:52;97857.59;;;21.37;61.43
59194;BME280;44967;48.598;15.650;2022-08-21T02:14:18;97858.06;;;21.48;61.45
59194;BME280;44967;48.598;15.650;2022-08-21T02:16:44;97834.59;;;21.36;60.64
59194;BME280;44967;48.598;15.650;2022-08-21T02:19:12;97820.31;;;21.08;61.97
59194;BME280;44967;48.598;15.650;2022-08-21T02:21:38;97819.44;;;21.12;61.93
59194;BME280;44967;48.598;15.650;2022-08-21T02:24:04;97846.91;;;21.22;61.80
59194;BME280;44967;48.598;15.650;2022-08-21T02:26:30;97836.41;;;21.14;63.02
59194;BME280;44967;48.598;15.650;2022-08-21T02:28:56;97832.44;;;21.15;62.11
59194;BME280;44967;48.598;15.650;2022-08-21T02:31:22;97831.13;;;21.19;61.51
59194;BME280;44967;48.598;15.650;2022-08-21T02:33:47;97840.59;;;21.22;61.86
59194;BME280;44967;48.598;15.650;2022-08-21T02:36:14;97818.69;;;21.24;61.40
59194;BME280;44967;48.598;15.650;2022-08-21T02:38:41;97852.56;;;21.19;61.97
59194;BME280;44967;48.598;15.650;2022-08-21T02:41:13;97836.38;;;21.30;62.31
59194;BME280;44967;48.598;15.650;2022-08-21T02:43:39;97835.03;;;21.22;61.19
59194;BME280;44967;48.598;15.650;2022-08-21T02:46:06;97829.47;;;21.22;62.23
59194;BME280;44967;48.598;15.650;2022-08-21T02:48:33;97847.69;;;21.23;62.74
59194;BME280;44967;48.598;15.650;2022-08-21T02:51:03;97848.63;;;21.46;62.25
59194;BME280;44967;48.598;15.650;2022-08-21T02:53:29;97838.91;;;21.24;61.94
59194;BME280;44967;48.598;15.650;2022-08-21T02:55:57;97838.34;;;21.17;61.38
59194;BME280;44967;48.598;15.650;2022-08-21T02:58:28;97834.16;;;20.95;61.98
59194;BME280;44967;48.598;15.650;2022-08-21T03:00:54;97846.97;;;21.06;61.93
59194;BME280;44967;48.598;15.650;2022-08-21T03:03:20;97830.56;;;21.24;61.99
59194;BME280;44967;48.598;15.650;2022-08-21T03:05:46;97852.16;;;21.33;61.79
59194;BME280;44967;48.598;15.650;2022-08-21T03:08:13;97835.47;;;21.33;61.75
59194;BME280;44967;48.598;15.650;2022-08-21T03:10:42;97830.84;;;21.43;60.65
59194;BME280;44967;48.598;15.650;2022-08-21T03:13:09;97832.38;;;21.31;61.12
59194;BME280;44967;48.598;15.650;2022-08-21T03:15:35;97835.28;;;21.41;60.38
59194;BME280;44967;48.598;15.650;2022-08-21T03:18:02;97829.28;;;21.55;60.84
59194;BME280;44967;48.598;15.650;2022-08-21T03:20:29;97833.50;;;21.34;60.77
59194;BME280;44967;48.598;15.650;2022-08-21T03:22:56;97827.66;;;21.15;61.17
59194;BME280;44967;48.598;15.650;2022-08-21T03:25:23;97821.16;;;20.92;61.96
59194;BME280;44967;48.598;15.650;2022-08-21T03:27:49;97825.56;;;21.19;60.98
59194;BME280;44967;48.598;15.650;2022-08-21T03:30:18;97827.22;;;21.17;61.19
59194;BME280;44967;48.598;15.650;2022-08-21T03:32:45;97816.03;;;21.20;61.48
59194;BME280;44967;48.598;15.650;2022-08-21T03:35:12;97823.63;;;21.03;61.36
59194;BME280;44967;48.598;15.650;2022-08-21T03:37:38;97830.28;;;20.93;61.97
59194;BME280;44967;48.598;15.650;2022-08-21T03:40:06;97833.88;;;21.06;62.09
59194;BME280;44967;48.598;15.650;2022-08-21T03:42:32;97834.50;;;20.98;61.83
59194;BME280;44967;48.598;15.650;2022-08-21T03:44:58;97839.63;;;20.82;62.56
59194;BME280;44967;48.598;15.650;2022-08-21T03:47:24;97842.22;;;21.06;61.47
59194;BME280;44967;48.598;15.650;2022-08-21T03:49:50;97831.22;;;21.16;61.03
59194;BME280;44967;48.598;15.650;2022-08-21T03:52:16;97832.28;;;21.05;62.50
59194;BME280;44967;48.598;15.650;2022-08-21T03:54:43;97840.28;;;21.03;60.77
59194;BME280;44967;48.598;15.650;2022-08-21T03:57:09;97853.84;;;21.01;61.18
59194;BME280;44967;48.598;15.650;2022-08-21T03:59:36;97840.63;;;21.05;61.66
59194;BME280;44967;48.598;15.650;2022-08-21T04:02:04;97840.69;;;20.89;61.92
59194;BME280;44967;48.598;15.650;2022-08-21T04:04:30;97837.06;;;20.59;62.88
59194;BME280;44967;48.598;15.650;2022-08-21T04:06:57;97845.47;;;20.88;62.45
59194;BME280;44967;48.598;15.650;2022-08-21T04:09:23;97843.38;;;20.76;62.42
59194;BME280;44967;48.598;15.650;2022-08-21T04:11:49;97834.84;;;21.00;62.09
59194;BME280;44967;48.598;15.650;2022-08-21T04:14:16;97840.44;;;20.83;62.21
59194;BME280;44967;48.598;15.650;2022-08-21T04:16:42;97839.13;;;20.88;61.53
59194;BME280;44967;48.598;15.650;2022-08-21T04:19:09;97847.69;;;20.47;62.58
59194;BME280;44967;48.598;15.650;2022-08-21T04:21:36;97855.78;;;20.88;61.49
59194;BME280;44967;48.598;15.650;2022-08-21T04:24:02;97836.34;;;20.88;62.24
59194;BME280;44967;48.598;15.650;2022-08-21T04:26:29;97844.47;;;20.95;62.11
59194;BME280;44967;48.598;15.650;2022-08-21T04:28:57;97834.97;;;21.09;61.50
59194;BME280;44967;48.598;15.650;2022-08-21T04:31:24;97842.63;;;20.75;62.75
59194;BME280;44967;48.598;15.650;2022-08-21T04:33:50;97835.94;;;20.73;62.75
59194;BME280;44967;48.598;15.650;2022-08-21T04:36:16;97840.28;;;20.74;62.83
59194;BME280;44967;48.598;15.650;2022-08-21T04:38:42;97847.81;;;20.73;63.00
59194;BME280;44967;48.598;15.650;2022-08-21T04:41:08;97846.13;;;20.92;62.24
59194;BME280;44967;48.598;15.650;2022-08-21T04:43:34;97863.00;;;21.15;62.62
59194;BME280;44967;48.598;15.650;2022-08-21T04:45:59;97836.97;;;20.62;63.29
59194;BME280;44967;48.598;15.650;2022-08-21T04:48:26;97844.88;;;21.10;62.39
59194;BME280;44967;48.598;15.650;2022-08-21T04:51:00;97862.63;;;21.13;62.73
59194;BME280;44967;48.598;15.650;2022-08-21T04:53:33;97848.25;;;20.88;62.65
59194;BME280;44967;48.598;15.650;2022-08-21T04:56:04;97851.41;;;21.03;63.40
59194;BME280;44967;48.598;15.650;2022-08-21T04:58:33;97848.00;;;21.12;63.08
59194;BME280;44967;48.598;15.650;2022-08-21T05:01:00;97851.97;;;21.11;61.52
59194;BME280;44967;48.598;15.650;2022-08-21T05:03:28;97859.72;;;21.03;62.83
59194;BME280;44967;48.598;15.650;2022-08-21T05:05:57;97847.69;;;21.23;61.72
59194;BME280;44967;48.598;15.650;2022-08-21T05:08:24;97851.16;;;21.40;61.71
59194;BME280;44967;48.598;15.650;2022-08-21T05:10:51;97860.59;;;21.00;62.31
59194;BME280;44967;48.598;15.650;2022-08-21T05:13:17;97868.44;;;21.18;62.30
59194;BME280;44967;48.598;15.650;2022-08-21T05:15:43;97859.09;;;21.12;61.63
59194;BME280;44967;48.598;15.650;2022-08-21T05:18:09;97872.72;;;21.49;61.33
59194;BME280;44967;48.598;15.650;2022-08-21T05:20:36;97858.63;;;21.56;60.96
59194;BME280;44967;48.598;15.650;2022-08-21T05:23:09;97882.19;;;21.64;61.39
59194;BME280;44967;48.598;15.650;2022-08-21T05:25:35;97870.28;;;21.64;61.18
59194;BME280;44967;48.598;15.650;2022-08-21T05:28:01;97873.25;;;21.44;61.04
59194;BME280;44967;48.598;15.650;2022-08-21T05:30:27;97874.91;;;21.71;60.85
59194;BME280;44967;48.598;15.650;2022-08-21T05:33:01;97873.78;;;21.68;61.32
59194;BME280;44967;48.598;15.650;2022-08-21T05:35:28;97887.31;;;21.66;61.07
59194;BME280;44967;48.598;15.650;2022-08-21T05:37:55;97890.03;;;21.70;60.90
59194;BME280;44967;48.598;15.650;2022-08-21T05:40:21;97888.03;;;21.96;59.95
59194;BME280;44967;48.598;15.650;2022-08-21T05:42:48;97879.47;;;22.03;59.32
59194;BME280;44967;48.598;15.650;2022-08-21T05:45:14;97889.91;;;22.12;59.43
59194;BME280;44967;48.598;15.650;2022-08-21T05:47:40;97885.69;;;22.08;59.61
59194;BME280;44967;48.598;15.650;2022-08-21T05:50:06;97884.34;;;22.12;60.24
59194;BME280;44967;48.598;15.650;2022-08-21T05:52:32;97885.81;;;21.91;60.42
59194;BME280;44967;48.598;15.650;2022-08-21T05:54:57;97895.16;;;21.84;59.79
59194;BME280;44967;48.598;15.650;2022-08-21T05:57:23;97885.19;;;21.57;61.18
59194;BME280;44967;48.598;15.650;2022-08-21T05:59:50;97899.94;;;21.84;60.11
59194;BME280;44967;48.598;15.650;2022-08-21T06:02:18;97904.69;;;21.83;60.11
59194;BME280;44967;48.598;15.650;2022-08-21T06:04:43;97910.03;;;21.77;60.69
59194;BME280;44967;48.598;15.650;2022-08-21T06:07:10;97904.25;;;21.72;59.96
59194;BME280;44967;48.598;15.650;2022-08-21T06:09:36;97889.47;;;21.75;61.04
59194;BME280;44967;48.598;15.650;2022-08-21T06:12:10;97894.53;;;21.50;60.72
59194;BME280;44967;48.598;15.650;2022-08-21T06:14:38;97905.94;;;21.40;61.07
59194;BME280;44967;48.598;15.650;2022-08-21T06:17:06;97907.50;;;22.09;59.59
59194;BME280;44967;48.598;15.650;2022-08-21T06:19:33;97902.38;;;21.82;60.90
59194;BME280;44967;48.598;15.650;2022-08-21T06:21:59;97911.47;;;21.95;60.29
59194;BME280;44967;48.598;15.650;2022-08-21T06:24:26;97907.50;;;22.09;60.40
59194;BME280;44967;48.598;15.650;2022-08-21T06:26:52;97908.94;;;22.27;60.24
59194;BME280;44967;48.598;15.650;2022-08-21T06:29:18;97892.59;;;21.90;59.88
59194;BME280;44967;48.598;15.650;2022-08-21T06:31:46;97909.38;;;22.12;60.24
59194;BME280;44967;48.598;15.650;2022-08-21T06:34:12;97913.50;;;22.21;59.82
59194;BME280;44967;48.598;15.650;2022-08-21T06:36:38;97892.13;;;22.30;59.35
59194;BME280;44967;48.598;15.650;2022-08-21T06:39:04;97901.44;;;22.50;59.12
59194;BME280;44967;48.598;15.650;2022-08-21T06:41:30;97900.91;;;22.29;59.19
59194;BME280;44967;48.598;15.650;2022-08-21T06:43:56;97893.22;;;22.59;59.38
59194;BME280;44967;48.598;15.650;2022-08-21T06:46:28;97918.50;;;22.52;59.10
59194;BME280;44967;48.598;15.650;2022-08-21T06:48:54;97910.94;;;22.52;58.74
59194;BME280;44967;48.598;15.650;2022-08-21T06:51:21;97887.22;;;22.48;59.22
59194;BME280;44967;48.598;15.650;2022-08-21T06:53:47;97908.38;;;22.06;60.47
59194;BME280;44967;48.598;15.650;2022-08-21T06:56:13;97899.91;;;22.23;59.97
59194;BME280;44967;48.598;15.650;2022-08-21T06:58:38;97899.81;;;22.13;59.64
59194;BME280;44967;48.598;15.650;2022-08-21T07:01:04;97916.72;;;22.58;59.55
59194;BME280;44967;48.598;15.650;2022-08-21T07:03:33;97916.50;;;22.39;59.25
59194;BME280;44967;48.598;15.650;2022-08-21T07:05:59;97908.16;;;22.52;59.41
59194;BME280;44967;48.598;15.650;2022-08-21T07:08:27;97908.09;;;22.78;58.83
59194;BME280;44967;48.598;15.650;2022-08-21T07:10:55;97908.81;;;22.56;59.93
59194;BME280;44967;48.598;15.650;2022-08-21T07:13:21;97921.00;;;22.72;59.07
59194;BME280;44967;48.598;15.650;2022-08-21T07:15:47;97913.91;;;22.71;58.82
59194;BME280;44967;48.598;15.650;2022-08-21T07:18:13;97919.47;;;22.71;58.30
59194;BME280;44967;48.598;15.650;2022-08-21T07:20:39;97898.03;;;22.94;57.50
59194;BME280;44967;48.598;15.650;2022-08-21T07:23:08;97922.09;;;22.87;57.98
59194;BME280;44967;48.598;15.650;2022-08-21T07:25:35;97923.28;;;22.99;58.65
59194;BME280;44967;48.598;15.650;2022-08-21T07:28:01;97895.09;;;22.97;57.71
59194;BME280;44967;48.598;15.650;2022-08-21T07:30:27;97901.41;;;23.11;58.05
59194;BME280;44967;48.598;15.650;2022-08-21T07:32:53;97898.94;;;23.13;57.97
59194;BME280;44967;48.598;15.650;2022-08-21T07:35:20;97920.13;;;23.10;58.49
59194;BME280;44967;48.598;15.650;2022-08-21T07:37:45;97910.41;;;23.15;57.75
59194;BME280;44967;48.598;15.650;2022-08-21T07:40:12;97916.63;;;23.19;57.60
59194;BME280;44967;48.598;15.650;2022-08-21T07:42:42;97907.56;;;23.06;57.64
59194;BME280;44967;48.598;15.650;2022-08-21T07:45:08;97898.63;;;23.11;57.81
59194;BME280;44967;48.598;15.650;2022-08-21T07:47:34;97909.56;;;23.27;57.79
59194;BME280;44967;48.598;15.650;2022-08-21T07:50:00;97896.84;;;23.04;58.08
59194;BME280;44967;48.598;15.650;2022-08-21T07:52:26;97905.69;;;23.03;58.43
59194;BME280;44967;48.598;15.650;2022-08-21T07:54:52;97897.09;;;22.97;58.22
59194;BME280;44967;48.598;15.650;2022-08-21T07:57:19;97917.09;;;23.18;57.85
59194;BME280;44967;48.598;15.650;2022-08-21T07:59:44;97897.78;;;23.23;58.18
59194;BME280;44967;48.598;15.650;2022-08-21T08:02:10;97907.56;;;22.70;57.54
59194;BME280;44967;48.598;15.650;2022-08-21T08:04:47;97905.22;;;23.04;58.37
59194;BME280;44967;48.598;15.650;2022-08-21T08:07:12;97915.28;;;23.24;57.97
59194;BME280;44967;48.598;15.650;2022-08-21T08:09:38;97911.66;;;23.59;57.07
59194;BME280;44967;48.598;15.650;2022-08-21T08:12:04;97907.66;;;23.60;57.32
59194;BME280;44967;48.598;15.650;2022-08-21T08:14:29;97910.91;;;23.36;56.58
59194;BME280;44967;48.598;15.650;2022-08-21T08:16:55;97926.41;;;23.01;58.08
59194;BME280;44967;48.598;15.650;2022-08-21T08:19:20;97903.03;;;22.99;57.90
59194;BME280;44967;48.598;15.650;2022-08-21T08:21:46;97913.53;;;23.62;57.59
59194;BME280;44967;48.598;15.650;2022-08-21T08:24:12;97909.91;;;23.74;57.32
59194;BME280;44967;48.598;15.650;2022-08-21T08:26:37;97911.81;;;23.55;56.50
59194;BME280;44967;48.598;15.650;2022-08-21T08:29:03;97901.41;;;24.09;55.88
59194;BME280;44967;48.598;15.650;2022-08-21T08:31:29;97919.59;;;23.60;56.71
59194;BME280;44967;48.598;15.650;2022-08-21T08:33:54;97901.16;;;23.63;56.87
59194;BME280;44967;48.598;15.650;2022-08-21T08:36:31;97906.00;;;24.03;55.92
59194;BME280;44967;48.598;15.650;2022-08-21T08:38:58;97898.97;;;24.21;56.25
59194;BME280;44967;48.598;15.650;2022-08-21T08:41:23;97909.16;;;24.15;54.30
59194;BME280;44967;48.598;15.650;2022-08-21T08:43:55;97918.38;;;24.34;55.20
59194;BME280;44967;48.598;15.650;2022-08-21T08:46:32;97910.69;;;24.75;54.53
59194;BME280;44967;48.598;15.650;2022-08-21T08:49:13;97914.72;;;24.56;54.23
59194;BME280;44967;48.598;15.650;2022-08-21T08:51:46;97918.91;;;24.60;54.01
59194;BME280;44967;48.598;15.650;2022-08-21T08:54:17;97924.50;;;24.70;53.73
59194;BME280;44967;48.598;15.650;2022-08-21T08:56:44;97924.81;;;24.72;52.68
59194;BME280;44967;48.598;15.650;2022-08-21T08:59:22;97912.84;;;24.52;53.59
59194;BME280;44967;48.598;15.650;2022-08-21T09:01:52;97928.31;;;24.44;53.43
59194;BME280;44967;48.598;15.650;2022-08-21T09:04:22;97923.94;;;24.24;53.58
59194;BME280;44967;48.598;15.650;2022-08-21T09:12:29;97925.81;;;25.06;52.98
59194;BME280;44967;48.598;15.650;2022-08-21T09:15:15;97920.50;;;24.80;51.67
59194;BME280;44967;48.598;15.650;2022-08-21T09:18:09;97936.69;;;25.23;51.48
59194;BME280;44967;48.598;15.650;2022-08-21T09:21:09;97939.47;;;25.04;51.54
59194;BME280;44967;48.598;15.650;2022-08-21T09:26:49;97919.59;;;24.83;50.71
59194;BME280;44967;48.598;15.650;2022-08-21T09:29:17;97911.50;;;25.41;50.71
59194;BME280;44967;48.598;15.650;2022-08-21T09:31:46;97923.00;;;25.25;49.83
59194;BME280;44967;48.598;15.650;2022-08-21T09:34:11;97914.63;;;25.15;50.25
59194;BME280;44967;48.598;15.650;2022-08-21T09:36:48;97900.16;;;25.45;50.41
59194;BME280;44967;48.598;15.650;2022-08-21T09:39:30;97927.97;;;25.39;49.29
59194;BME280;44967;48.598;15.650;2022-08-21T09:42:02;97913.94;;;24.64;49.73
59194;BME280;44967;48.598;15.650;2022-08-21T09:44:35;97915.72;;;24.99;50.27
59194;BME280;44967;48.598;15.650;2022-08-21T09:47:06;97906.53;;;25.27;50.32
59194;BME280;44967;48.598;15.650;2022-08-21T09:49:38;97921.31;;;25.27;49.40
59194;BME280;44967;48.598;15.650;2022-08-21T09:52:17;97936.06;;;25.37;48.61
59194;BME280;44967;48.598;15.650;2022-08-21T09:54:45;97911.53;;;25.23;49.11
59194;BME280;44967;48.598;15.650;2022-08-21T09:57:16;97909.22;;;25.02;47.80
59194;BME280;44967;48.598;15.650;2022-08-21T10:00:24;97914.16;;;24.98;48.75
59194;BME280;44967;48.598;15.650;2022-08-21T10:02:50;97908.25;;;25.43;48.92
59194;BME280;44967;48.598;15.650;2022-08-21T10:07:43;97917.13;;;25.23;48.14
59194;BME280;44967;48.598;15.650;2022-08-21T10:10:21;97914.59;;;25.43;48.59
59194;BME280;44967;48.598;15.650;2022-08-21T10:21:17;97917.03;;;24.57;48.57
59194;BME280;44967;48.598;15.650;2022-08-21T10:23:57;97921.47;;;25.24;48.10
59194;BME280;44967;48.598;15.650;2022-08-21T10:26:35;97932.03;;;25.29;49.05
59194;BME280;44967;48.598;15.650;2022-08-21T10:37:37;97943.25;;;24.69;48.64
59194;BME280;44967;48.598;15.650;2022-08-21T10:40:18;97934.97;;;24.97;47.93
59194;BME280;44967;48.598;15.650;2022-08-21T10:45:29;97922.22;;;25.43;46.72
59194;BME280;44967;48.598;15.650;2022-08-21T10:48:03;97921.28;;;25.55;47.17
59194;BME280;44967;48.598;15.650;2022-08-21T10:50:44;97943.16;;;25.66;46.72
59194;BME280;44967;48.598;15.650;2022-08-21T10:58:49;97917.41;;;24.97;47.29
59194;BME280;44967;48.598;15.650;2022-08-21T11:01:24;97921.59;;;25.48;47.13
59194;BME280;44967;48.598;15.650;2022-08-21T11:04:15;97941.50;;;25.41;46.46
59194;BME280;44967;48.598;15.650;2022-08-21T11:06:47;97937.31;;;25.36;46.64
59194;BME280;44967;48.598;15.650;2022-08-21T11:09:18;97917.44;;;25.53;46.72
59194;BME280;44967;48.598;15.650;2022-08-21T11:11:56;97919.53;;;26.20;45.95
59194;BME280;44967;48.598;15.650;2022-08-21T11:14:49;97931.53;;;26.11;45.89
59194;BME280;44967;48.598;15.650;2022-08-21T11:17:27;97912.28;;;26.04;45.57
59194;BME280;44967;48.598;15.650;2022-08-21T11:20:24;97920.31;;;26.20;45.33
59194;BME280;44967;48.598;15.650;2022-08-21T11:23:01;97923.69;;;26.34;44.99
59194;BME280;44967;48.598;15.650;2022-08-21T11:25:35;97937.75;;;26.15;45.83
59194;BME280;44967;48.598;15.650;2022-08-21T11:28:08;97930.78;;;26.10;46.15
59194;BME280;44967;48.598;15.650;2022-08-21T11:33:36;97929.28;;;25.91;46.17
59194;BME280;44967;48.598;15.650;2022-08-21T11:38:52;97919.97;;;26.61;44.74
59194;BME280;44967;48.598;15.650;2022-08-21T11:41:33;97919.88;;;26.22;44.87
59194;BME280;44967;48.598;15.650;2022-08-21T11:49:33;97941.47;;;26.12;44.65
59194;BME280;44967;48.598;15.650;2022-08-21T11:55:07;97930.75;;;25.49;45.67
59194;BME280;44967;48.598;15.650;2022-08-21T11:57:52;97915.25;;;26.00;43.82
59194;BME280;44967;48.598;15.650;2022-08-21T12:03:14;97930.03;;;26.00;43.69
59194;BME280;44967;48.598;15.650;2022-08-21T12:05:44;97913.25;;;26.00;42.81
59194;BME280;44967;48.598;15.650;2022-08-21T12:08:33;97937.38;;;24.67;44.75
59194;BME280;44967;48.598;15.650;2022-08-21T12:11:04;97943.09;;;25.94;44.35
59194;BME280;44967;48.598;15.650;2022-08-21T12:13:36;97919.88;;;26.22;42.21
59194;BME280;44967;48.598;15.650;2022-08-21T12:16:14;97935.13;;;26.02;42.36
59194;BME280;44967;48.598;15.650;2022-08-21T12:18:41;97910.94;;;26.33;42.02
59194;BME280;44967;48.598;15.650;2022-08-21T12:21:25;97920.59;;;26.56;42.39
59194;BME280;44967;48.598;15.650;2022-08-21T12:26:57;97923.19;;;26.01;41.58
59194;BME280;44967;48.598;15.650;2022-08-21T12:37:09;97910.88;;;25.56;42.16
59194;BME280;44967;48.598;15.650;2022-08-21T12:39:44;97912.56;;;26.73;40.86
59194;BME280;44967;48.598;15.650;2022-08-21T12:42:34;97905.03;;;27.04;40.17
59194;BME280;44967;48.598;15.650;2022-08-21T12:45:11;97915.34;;;27.22;40.27
59194;BME280;44967;48.598;15.650;2022-08-21T12:48:04;97898.69;;;27.18;40.29
59194;BME280;44967;48.598;15.650;2022-08-21T12:50:42;97916.16;;;26.74;40.39
59194;BME280;44967;48.598;15.650;2022-08-21T12:53:16;97892.50;;;26.75;40.53
59194;BME280;44967;48.598;15.650;2022-08-21T12:55:43;97926.56;;;26.49;41.21
59194;BME280;44967;48.598;15.650;2022-08-21T12:58:23;97922.88;;;26.42;40.50
59194;BME280;44967;48.598;15.650;2022-08-21T13:00:53;97899.28;;;26.59;39.96
59194;BME280;44967;48.598;15.650;2022-08-21T13:03:21;97918.72;;;26.87;39.94
59194;BME280;44967;48.598;15.650;2022-08-21T13:05:47;97913.81;;;26.72;40.92
59194;BME280;44967;48.598;15.650;2022-08-21T13:08:13;97901.50;;;26.54;40.87
59194;BME280;44967;48.598;15.650;2022-08-21T13:10:41;97905.34;;;26.81;40.47
59194;BME280;44967;48.598;15.650;2022-08-21T13:13:19;97904.88;;;26.59;40.79
59194;BME280;44967;48.598;15.650;2022-08-21T13:15:48;97883.41;;;26.89;40.93
59194;BME280;44967;48.598;15.650;2022-08-21T13:18:25;97903.91;;;27.10;39.21
59194;BME280;44967;48.598;15.650;2022-08-21T13:20:52;97889.16;;;26.86;40.01
59194;BME280;44967;48.598;15.650;2022-08-21T13:23:29;97892.84;;;27.46;39.41
59194;BME280;44967;48.598;15.650;2022-08-21T13:25:56;97909.84;;;28.03;38.78
59194;BME280;44967;48.598;15.650;2022-08-21T13:28:23;97888.66;;;27.27;39.53
59194;BME280;44967;48.598;15.650;2022-08-21T13:30:54;97891.69;;;27.83;39.08
59194;BME280;44967;48.598;15.650;2022-08-21T13:33:24;97900.06;;;28.13;38.32
59194;BME280;44967;48.598;15.650;2022-08-21T13:36:01;97896.25;;;28.31;38.34
59194;BME280;44967;48.598;15.650;2022-08-21T13:38:34;97880.25;;;27.87;39.39
59194;BME280;44967;48.598;15.650;2022-08-21T13:41:08;97880.03;;;28.21;38.05
59194;BME280;44967;48.598;15.650;2022-08-21T13:43:37;97864.31;;;27.48;38.59
59194;BME280;44967;48.598;15.650;2022-08-21T13:46:07;97874.50;;;26.91;40.60
59194;BME280;44967;48.598;15.650;2022-08-21T13:48:35;97875.00;;;27.59;39.09
59194;BME280;44967;48.598;15.650;2022-08-21T13:51:02;97872.59;;;28.02;38.90
59194;BME280;44967;48.598;15.650;2022-08-21T13:53:33;97887.25;;;27.61;38.96
59194;BME280;44967;48.598;15.650;2022-08-21T13:56:00;97882.09;;;27.30;38.85
59194;BME280;44967;48.598;15.650;2022-08-21T13:58:30;97877.16;;;26.61;39.88
59194;BME280;44967;48.598;15.650;2022-08-21T14:00:56;97884.06;;;26.99;40.21
59194;BME280;44967;48.598;15.650;2022-08-21T14:03:37;97874.91;;;27.14;39.01
59194;BME280;44967;48.598;15.650;2022-08-21T14:06:16;97874.53;;;26.81;39.19